createdAt,value
2023-03-28T05:51:30.406Z,100.00
2023-03-28T05:54:33.196Z,100.00
2023-03-28T05:57:35.706Z,100.00
2023-03-28T06:00:38.329Z,100.00
2023-03-28T06:03:42.558Z,100.00
2023-03-28T06:06:48.633Z,100.00
2023-03-28T06:09:51.232Z,100.00
2023-03-28T06:12:53.716Z,100.00
2023-03-28T06:15:56.324Z,100.00
2023-03-28T06:19:10.497Z,100.00
2023-03-28T06:22:21.188Z,100.00
2023-03-28T06:25:23.761Z,100.00
2023-03-28T06:28:26.568Z,100.00
2023-03-28T06:31:29.153Z,100.00
2023-03-28T06:34:31.715Z,100.00
2023-03-28T06:37:35.733Z,100.00
2023-03-28T06:40:38.397Z,100.00
2023-03-28T06:43:41.488Z,100.00
2023-03-28T06:46:43.999Z,100.00
2023-03-28T06:49:46.525Z,100.00
2023-03-28T06:52:50.541Z,100.00
2023-03-28T06:55:53.543Z,100.00
2023-03-28T06:58:56.105Z,100.00
2023-03-28T07:01:58.652Z,100.00
2023-03-28T07:05:01.234Z,100.00
2023-03-28T07:08:05.531Z,100.00
2023-03-28T07:11:08.265Z,100.00
2023-03-28T07:14:10.975Z,100.00
2023-03-28T07:17:13.582Z,100.00
2023-03-28T07:20:16.281Z,100.00
2023-03-28T07:23:20.136Z,100.00
2023-03-28T07:26:22.832Z,100.00
2023-03-28T07:29:25.539Z,100.00
2023-03-28T07:32:38.669Z,100.00
2023-03-28T07:35:45.520Z,100.00
2023-03-28T07:38:49.668Z,100.00
2023-03-28T07:41:52.238Z,100.00
2023-03-28T07:44:54.903Z,100.00
2023-03-28T07:47:57.595Z,100.00
2023-03-28T07:51:00.663Z,100.00
2023-03-28T07:54:05.907Z,100.00
2023-03-28T07:57:08.524Z,100.00
2023-03-28T08:00:13.143Z,100.00
2023-03-28T08:03:16.660Z,100.00
2023-03-28T08:06:31.706Z,100.00
2023-03-28T08:09:36.104Z,100.00
2023-03-28T08:12:38.705Z,100.00
2023-03-28T08:15:41.453Z,100.00
2023-03-28T08:18:44.023Z,100.00
2023-03-28T08:21:46.594Z,100.00
2023-03-28T08:24:50.510Z,100.00
2023-03-28T08:27:53.011Z,100.00
2023-03-28T08:30:55.551Z,100.00
2023-03-28T08:33:58.581Z,100.00
2023-03-28T08:37:01.129Z,100.00
2023-03-28T08:40:10.921Z,100.00
2023-03-28T08:43:33.806Z,100.00
2023-03-28T08:46:39.500Z,100.00
2023-03-28T08:49:47.116Z,100.00
2023-03-28T08:52:49.912Z,100.00
2023-03-28T08:55:56.440Z,100.00
2023-03-28T08:59:06.365Z,100.00
2023-03-28T09:02:18.609Z,100.00
2023-03-28T09:05:30.449Z,100.00
2023-03-28T09:08:48.981Z,100.00
2023-03-28T09:12:03.616Z,100.00
2023-03-28T09:15:24.726Z,100.00
2023-03-28T09:19:04.779Z,100.00
2023-03-28T09:22:19.797Z,99.75
2023-03-28T09:25:30.698Z,95.57
2023-03-28T09:28:43.757Z,91.78
2023-03-28T09:31:48.686Z,95.19
2023-03-28T09:34:52.593Z,96.48
2023-03-28T09:37:59.381Z,98.80
2023-03-28T09:41:08.340Z,94.94
2023-03-28T09:44:16.834Z,93.88
2023-03-28T09:47:19.313Z,92.33
2023-03-28T09:50:21.983Z,89.61
2023-03-28T09:53:27.452Z,90.17
2023-03-28T09:56:34.125Z,88.06
2023-03-28T09:59:38.187Z,91.46
2023-03-28T10:02:40.913Z,92.31
2023-03-28T10:05:45.176Z,89.93
2023-03-28T10:08:47.732Z,90.92
2023-03-28T10:11:54.426Z,89.30
2023-03-28T10:14:58.588Z,84.25
2023-03-28T10:18:03.196Z,87.81
2023-03-28T10:21:11.790Z,86.08
2023-03-28T10:24:17.311Z,85.95
2023-03-28T10:27:23.945Z,86.39
2023-03-28T10:30:30.463Z,85.87
2023-03-28T10:33:34.956Z,80.81
2023-03-28T10:36:42.907Z,82.38
2023-03-28T10:39:59.801Z,83.63
2023-03-28T10:43:02.397Z,82.24
2023-03-28T10:46:14.175Z,85.18
2023-03-28T10:49:20.042Z,82.90
2023-03-28T10:52:33.222Z,83.61
2023-03-28T10:55:40.562Z,78.85
2023-03-28T10:58:53.875Z,74.84
2023-03-28T11:02:13.207Z,79.14
2023-03-28T11:05:38.578Z,75.82
2023-03-28T11:08:55.201Z,76.44
2023-03-28T11:12:07.814Z,70.34
2023-03-28T11:15:17.273Z,76.39
2023-03-28T11:18:36.239Z,70.00
2023-03-28T11:21:49.012Z,70.29
2023-03-28T11:24:59.032Z,67.17
2023-03-28T11:28:08.606Z,70.67
2023-03-28T11:31:16.323Z,70.57
2023-03-28T11:34:27.604Z,66.82
2023-03-28T11:37:38.206Z,66.29
2023-03-28T11:40:50.424Z,67.61
2023-03-28T11:43:58.311Z,66.37
2023-03-28T11:47:12.091Z,67.32
2023-03-28T11:50:23.808Z,66.86
2023-03-28T11:53:30.581Z,64.25
2023-03-28T11:56:46.286Z,60.11
2023-03-28T11:59:55.962Z,59.45
2023-03-28T12:03:07.701Z,63.62
2023-03-28T12:06:13.968Z,62.04
2023-03-28T12:09:29.097Z,61.12
2023-03-28T12:12:34.179Z,63.66
2023-03-28T12:15:42.964Z,64.57
2023-03-28T12:18:48.974Z,64.29
2023-03-28T12:21:58.874Z,62.81
2023-03-28T12:25:07.299Z,60.84
2023-03-28T12:28:16.015Z,61.32
2023-03-28T12:31:27.001Z,58.57
2023-03-28T12:34:35.686Z,58.92
2023-03-28T12:37:48.802Z,57.03
2023-03-28T12:40:57.602Z,59.84
2023-03-28T12:44:05.022Z,57.44
2023-03-28T12:47:12.480Z,57.35
2023-03-28T12:50:21.933Z,52.70
2023-03-28T12:53:27.514Z,54.59
2023-03-28T12:56:29.998Z,56.90
2023-03-28T13:00:04.758Z,54.30
2023-03-28T13:03:18.368Z,53.39
2023-03-28T13:06:28.841Z,50.13
2023-03-28T13:09:48.372Z,53.88
2023-03-28T13:13:06.379Z,52.33
2023-03-28T13:16:16.535Z,52.49
2023-03-28T13:19:20.262Z,48.50
2023-03-28T13:22:29.838Z,48.23
2023-03-28T13:25:44.686Z,52.19
2023-03-28T13:28:51.485Z,48.33
2023-03-28T13:32:06.725Z,48.44
2023-03-28T13:35:39.604Z,49.90
2023-03-28T13:38:50.743Z,49.11
2023-03-28T13:41:59.930Z,46.74
2023-03-28T13:45:05.134Z,47.33
2023-03-28T13:51:20.089Z,48.15
2023-03-28T13:54:23.781Z,46.12
2023-03-28T13:57:28.196Z,47.18
2023-03-28T14:00:31.206Z,47.57
2023-03-28T14:03:36.930Z,47.04
2023-03-28T14:06:42.529Z,49.87
2023-03-28T14:09:45.048Z,47.46
2023-03-28T14:12:49.215Z,46.21
2023-03-28T14:15:53.835Z,46.00
2023-03-28T14:18:56.431Z,46.10
2023-03-28T14:22:00.369Z,45.45
2023-03-28T14:25:06.327Z,44.93
2023-03-28T14:28:09.779Z,46.74
2023-03-28T14:31:14.409Z,48.45
2023-03-28T14:34:23.991Z,48.60
2023-03-28T14:37:29.865Z,46.05
2023-03-28T14:40:35.556Z,45.58
2023-03-28T14:43:38.200Z,44.87
2023-03-28T14:46:41.277Z,47.77
2023-03-28T14:49:45.733Z,46.39
2023-03-28T14:52:49.935Z,47.34
2023-03-28T14:55:54.573Z,49.33
2023-03-28T14:59:01.449Z,48.29
2023-03-28T15:02:06.147Z,47.19
2023-03-28T15:05:11.518Z,46.78
2023-03-28T15:08:26.800Z,45.00
2023-03-28T15:11:32.496Z,46.62
2023-03-28T15:14:41.163Z,45.44
2023-03-28T15:17:45.913Z,45.60
2023-03-28T15:20:52.627Z,47.21
2023-03-28T15:24:01.438Z,44.89
2023-03-28T15:27:07.459Z,44.50
2023-03-28T15:30:16.309Z,44.94
2023-03-28T15:33:21.071Z,46.61
2023-03-28T15:36:25.953Z,43.63
2023-03-28T15:39:32.471Z,45.55
2023-03-28T15:42:37.112Z,45.43
2023-03-28T15:45:43.851Z,49.62
2023-03-28T15:48:46.381Z,45.45
2023-03-28T15:51:51.572Z,45.14
2023-03-28T15:54:56.474Z,47.04
2023-03-28T15:57:59.584Z,46.29
2023-03-28T16:01:26.989Z,44.57
2023-03-28T16:04:29.613Z,46.05
2023-03-28T16:07:37.023Z,46.14
2023-03-28T16:10:40.953Z,47.39
2023-03-28T16:13:43.518Z,47.83
2023-03-28T16:16:46.495Z,48.26
2023-03-28T16:19:49.994Z,49.27
2023-03-28T16:22:52.500Z,47.32
2023-03-28T16:25:56.501Z,48.15
2023-03-28T16:28:58.969Z,48.13
2023-03-28T16:32:01.680Z,49.54
2023-03-28T16:35:04.795Z,51.64
2023-03-28T16:38:07.634Z,49.22
2023-03-28T16:41:11.630Z,51.22
2023-03-28T16:44:14.115Z,53.92
2023-03-28T16:47:16.624Z,54.22
2023-03-28T16:50:19.127Z,55.21
2023-03-28T16:53:21.680Z,51.57
2023-03-28T16:56:27.530Z,53.14
2023-03-28T16:59:30.006Z,52.52
2023-03-28T17:02:32.602Z,54.76
2023-03-28T17:05:37.359Z,57.44
2023-03-28T17:08:40.877Z,57.38
2023-03-28T17:11:44.718Z,57.50
2023-03-28T17:14:47.219Z,56.36
2023-03-28T17:17:49.719Z,57.48
2023-03-28T17:21:01.208Z,58.45
2023-03-28T17:24:04.757Z,59.88
2023-03-28T17:27:09.091Z,61.29
2023-03-28T17:30:12.981Z,62.56
2023-03-28T17:33:15.564Z,63.73
2023-03-28T17:36:22.025Z,65.35
2023-03-28T17:39:24.851Z,66.90
2023-03-28T17:42:28.722Z,68.34
2023-03-28T17:45:31.247Z,69.67
2023-03-28T17:48:33.742Z,70.39
2023-03-28T17:51:36.453Z,69.75
2023-03-28T17:54:39.236Z,71.80
2023-03-28T17:57:43.027Z,74.18
2023-03-28T18:00:45.538Z,75.17
2023-03-28T18:03:48.092Z,76.17
2023-03-28T18:06:51.297Z,78.16
2023-03-28T18:09:55.031Z,76.62
2023-03-28T18:12:58.864Z,75.50
2023-03-28T18:16:01.659Z,76.48
2023-03-28T18:19:06.760Z,76.83
2023-03-28T18:22:09.632Z,77.79
2023-03-28T18:25:12.114Z,79.46
2023-03-28T18:28:16.008Z,79.40
2023-03-28T18:31:27.679Z,81.24
2023-03-28T18:34:30.921Z,79.95
2023-03-28T18:37:33.741Z,82.11
2023-03-28T18:40:36.469Z,83.07
2023-03-28T18:43:42.094Z,85.65
2023-03-28T18:46:44.676Z,86.83
2023-03-28T18:49:47.129Z,88.12
2023-03-28T18:52:49.659Z,89.00
2023-03-28T18:55:52.562Z,90.30
2023-03-28T18:58:57.249Z,90.36
2023-03-28T19:02:00.892Z,90.40
2023-03-28T19:05:03.463Z,92.00
2023-03-28T19:08:06.314Z,92.99
2023-03-28T19:11:11.713Z,94.27
2023-03-28T19:14:15.669Z,95.30
2023-03-28T19:17:18.147Z,95.40
2023-03-28T19:20:20.754Z,95.16
2023-03-28T19:23:23.230Z,95.78
2023-03-28T19:26:26.244Z,95.88
2023-03-28T19:29:32.006Z,96.48
2023-03-28T19:32:34.634Z,96.19
2023-03-28T19:35:38.432Z,96.01
2023-03-28T19:38:41.429Z,96.87
2023-03-28T19:41:44.014Z,96.48
2023-03-28T19:44:47.836Z,95.51
2023-03-28T19:47:50.542Z,95.91
2023-03-28T19:50:53.048Z,95.78
2023-03-28T19:53:55.956Z,96.69
